TimeMDT,TemperatureF,Dew PointF,Humidity,Sea Level PressureIn,VisibilityMPH,Wind Direction,Wind SpeedMPH,Gust SpeedMPH,PrecipitationIn,Events,Conditions,WindDirDegrees,DateUTC
12:53 AM,60.1,57.9,93,29.99,10.0,South,21.9,34.5,N/A,,Overcast,180,2013-09-17 06:53:00
1:53 AM,59.0,57.0,93,29.97,10.0,South,19.6,26.5,N/A,,Mostly Cloudy,190,2013-09-17 07:53:00
2:01 AM,59.0,57.2,94,30.08,10.0,South,19.6,26.5,N/A,,Scattered Clouds,190,2013-09-17 08:01:00
2:53 AM,59.0,57.0,93,29.94,10.0,South,15.0,25.3,N/A,,Clear,190,2013-09-17 08:53:00
3:53 AM,57.9,57.0,97,29.92,10.0,SSW,16.1,25.3,N/A,,Clear,200,2013-09-17 09:53:00
4:53 AM,57.0,55.9,96,29.92,9.0,SSW,12.7,-,N/A,,Clear,200,2013-09-17 10:53:00
5:53 AM,57.0,55.0,93,29.92,10.0,SSW,11.5,-,N/A,,Clear,210,2013-09-17 11:53:00
6:53 AM,57.0,54.0,89,29.94,10.0,WSW,8.1,-,N/A,,Clear,240,2013-09-17 12:53:00
7:53 AM,61.0,55.0,81,29.93,10.0,WSW,10.4,-,N/A,,Clear,250,2013-09-17 13:53:00
8:53 AM,64.9,55.0,70,29.91,10.0,West,13.8,-,N/A,,Clear,260,2013-09-17 14:53:00
9:53 AM,70.0,55.0,59,29.89,10.0,West,13.8,19.6,N/A,,Clear,270,2013-09-17 15:53:00
10:53 AM,73.9,55.9,53,29.88,10.0,West,13.8,-,N/A,,Clear,270,2013-09-17 16:53:00
11:53 AM,79.0,54.0,42,29.85,10.0,Variable,3.5,-,N/A,,Clear,0,2013-09-17 17:53:00
12:53 PM,82.0,50.0,33,29.81,10.0,Variable,6.9,-,N/A,,Clear,0,2013-09-17 18:53:00
1:53 PM,82.9,48.0,29,29.79,10.0,South,11.5,-,N/A,,Clear,180,2013-09-17 19:53:00
2:53 PM,84.0,45.0,25,29.76,10.0,South,12.7,-,N/A,,Clear,170,2013-09-17 20:53:00
3:53 PM,84.0,42.1,23,29.74,10.0,South,8.1,-,N/A,,Clear,170,2013-09-17 21:53:00
4:53 PM,84.0,46.0,26,29.73,10.0,SSE,11.5,-,N/A,,Clear,160,2013-09-17 22:53:00
5:53 PM,81.0,50.0,34,29.73,10.0,South,13.8,-,N/A,,Clear,170,2013-09-17 23:53:00
6:53 PM,73.9,54.0,50,29.74,10.0,South,12.7,-,N/A,,Clear,170,2013-09-18 00:53:00
7:53 PM,69.1,54.0,58,29.75,10.0,South,11.5,-,N/A,,Clear,170,2013-09-18 01:53:00
8:53 PM,68.0,55.0,63,29.74,10.0,SSE,11.5,-,N/A,,Clear,150,2013-09-18 02:53:00
9:53 PM,66.9,54.0,63,29.73,10.0,South,11.5,21.9,N/A,,Clear,180,2013-09-18 03:53:00
10:53 PM,66.0,52.0,60,29.71,10.0,South,11.5,-,N/A,,Clear,180,2013-09-18 04:53:00
11:53 PM,66.9,54.0,63,29.68,10.0,South,12.7,24.2,N/A,,Clear,190,2013-09-18 05:53:00